Terminal Aerodrome Forecast
Issued by NWS

Home | Current Version | Previous Version | Text Only | Print | Product List | Glossary On
Versions: 1 2 3 4 5 6 7 8 9 10 11 12 13 14 15 16 17 18 19 20 21 22 23 24 25 26 27
343
FTUS41 KBGM 242345 CCA
TAFITH
TAF COR
KITH 242345Z 2500/2524 VRB05KT P6SM SCT020 OVC100
     FM250600 12008KT P6SM -SHRA OVC030
     FM250800 16020G33KT 3SM RA BR OVC010 WS020/15050KT
     FM251600 17015G25KT P6SM -SHRA OVC018 WS020/20045KT
     FM252000 23009KT P6SM SCT050 BKN200=

USA.gov is the U.S. government's official web portal to all federal, state and local government web resources and services.